createdAt,value
2022-09-11T00:01:16.287Z,100558.66
2022-09-11T00:03:44.602Z,100562.22
2022-09-11T00:06:13.146Z,100563.72
2022-09-11T00:08:41.440Z,100563.47
2022-09-11T00:11:13.613Z,100563.41
2022-09-11T00:13:40.637Z,100563.88
2022-09-11T00:16:18.886Z,100556.75
2022-09-11T00:18:46.742Z,100561.69
2022-09-11T00:21:13.243Z,100563.69
2022-09-11T00:23:39.804Z,100568.25
2022-09-11T00:26:06.581Z,100570.09
2022-09-11T00:28:34.371Z,100575.84
2022-09-11T00:31:05.158Z,100576.16
2022-09-11T00:33:33.388Z,100575.00
2022-09-11T00:36:24.319Z,100578.50
2022-09-11T00:38:51.248Z,100586.50
2022-09-11T00:41:22.691Z,100584.75
2022-09-11T00:44:05.125Z,100585.88
2022-09-11T00:46:53.267Z,100595.91
2022-09-11T00:49:32.520Z,100589.53
2022-09-11T00:52:13.634Z,100589.88
2022-09-11T00:54:49.500Z,100588.53
2022-09-11T00:57:20.596Z,100590.56
2022-09-11T00:59:48.255Z,100584.19
2022-09-11T01:02:18.943Z,100595.38
2022-09-11T01:04:45.667Z,100598.50
2022-09-11T01:07:15.323Z,100597.22
2022-09-11T01:09:42.793Z,100603.75
2022-09-11T01:12:31.020Z,100597.31
2022-09-11T01:15:04.036Z,100601.31
2022-09-11T01:17:47.870Z,100602.78
2022-09-11T01:20:20.372Z,100601.28
2022-09-11T01:23:19.399Z,100603.25
2022-09-11T01:26:18.853Z,100604.28
2022-09-11T01:29:15.882Z,100608.59
2022-09-11T01:31:53.506Z,100603.19
2022-09-11T01:34:45.006Z,100605.66
2022-09-11T01:37:21.721Z,100611.97
2022-09-11T01:39:58.796Z,100609.16
2022-09-11T01:42:31.383Z,100613.94
2022-09-11T01:44:59.390Z,100623.47
2022-09-11T01:47:28.319Z,100627.00
2022-09-11T01:50:05.811Z,100618.66
2022-09-11T01:52:39.681Z,100624.53
2022-09-11T01:55:19.006Z,100623.09
2022-09-11T01:57:52.213Z,100616.88
2022-09-11T02:00:19.702Z,100621.88
2022-09-11T02:02:59.454Z,100619.25
2022-09-11T02:05:35.463Z,100626.88
2022-09-11T02:08:16.534Z,100633.25
2022-09-11T02:10:52.083Z,100630.94
2022-09-11T02:13:37.222Z,100633.69
2022-09-11T02:16:17.390Z,100636.63
2022-09-11T02:18:50.122Z,100635.00
2022-09-11T02:21:16.622Z,100637.28
2022-09-11T02:23:43.248Z,100644.09
2022-09-11T02:26:13.499Z,100647.53
2022-09-11T02:28:40.449Z,100643.44
2022-09-11T02:31:07.745Z,100653.72
2022-09-11T02:33:36.934Z,100654.28
2022-09-11T02:36:39.355Z,100654.66
2022-09-11T02:39:25.507Z,100664.00
2022-09-11T02:42:27.201Z,100666.56
2022-09-11T02:45:30.201Z,100664.00
2022-09-11T02:48:28.222Z,100666.06
2022-09-11T02:51:25.859Z,100655.84
2022-09-11T02:54:19.499Z,100662.91
2022-09-11T02:56:52.432Z,100656.25
2022-09-11T02:59:30.070Z,100660.63
2022-09-11T03:02:02.103Z,100671.03
2022-09-11T03:04:31.231Z,100665.88
2022-09-11T03:06:58.895Z,100677.22
2022-09-11T03:09:25.555Z,100667.38
2022-09-11T03:11:58.272Z,100673.75
2022-09-11T03:14:24.786Z,100667.38
2022-09-11T03:16:51.402Z,100668.59
2022-09-11T03:19:19.551Z,100669.16
2022-09-11T03:21:46.067Z,100675.84
2022-09-11T03:24:14.429Z,100680.47
2022-09-11T03:26:41.461Z,100682.50
2022-09-11T03:29:08.903Z,100689.25
2022-09-11T03:31:39.080Z,100687.16
2022-09-11T03:34:06.544Z,100688.69
2022-09-11T03:36:36.979Z,100687.81
2022-09-11T03:39:04.970Z,100686.75
2022-09-11T03:41:32.463Z,100680.66
2022-09-11T03:43:59.753Z,100676.09
2022-09-11T03:46:26.306Z,100683.50
2022-09-11T03:48:53.244Z,100684.06
2022-09-11T03:51:21.176Z,100686.47
2022-09-11T03:53:48.575Z,100691.28
2022-09-11T03:56:16.019Z,100689.69
2022-09-11T03:58:47.578Z,100682.41
2022-09-11T04:01:19.369Z,100688.00
2022-09-11T04:03:46.459Z,100688.00
2022-09-11T04:06:21.651Z,100683.81
2022-09-11T04:08:49.770Z,100681.38
2022-09-11T04:11:17.005Z,100685.94
2022-09-11T04:13:44.424Z,100685.94
2022-09-11T04:16:16.771Z,100682.34
2022-09-11T04:18:46.625Z,100677.97
2022-09-11T04:21:17.276Z,100687.13
2022-09-11T04:23:50.392Z,100676.94
2022-09-11T04:26:19.687Z,100681.69
2022-09-11T04:28:51.271Z,100686.38
2022-09-11T04:31:20.099Z,100695.06
2022-09-11T04:33:47.938Z,100694.34
2022-09-11T04:36:18.001Z,100706.44
2022-09-11T04:38:45.880Z,100702.69
2022-09-11T04:41:15.026Z,100709.38
2022-09-11T04:43:42.360Z,100719.78
2022-09-11T04:46:17.292Z,100723.97
2022-09-11T04:48:45.703Z,100723.78
2022-09-11T04:51:32.094Z,100729.41
2022-09-11T04:54:00.450Z,100736.50
2022-09-11T04:56:34.841Z,100734.41
2022-09-11T04:59:06.545Z,100742.38
2022-09-11T05:01:35.706Z,100736.09
2022-09-11T05:04:03.122Z,100731.09
2022-09-11T05:06:30.675Z,100736.34
2022-09-11T05:09:05.243Z,100742.38
2022-09-11T05:11:34.655Z,100746.16
2022-09-11T05:14:01.669Z,100739.03
2022-09-11T05:16:31.218Z,100745.69
2022-09-11T05:18:59.019Z,100741.88
2022-09-11T05:21:27.329Z,100740.63
2022-09-11T05:23:55.935Z,100742.88
2022-09-11T05:26:26.603Z,100755.44
2022-09-11T05:28:55.895Z,100765.28
2022-09-11T05:31:25.432Z,100770.75
2022-09-11T05:33:55.850Z,100768.06
2022-09-11T05:36:23.634Z,100776.81
2022-09-11T05:38:50.249Z,100779.97
2022-09-11T05:41:17.382Z,100782.25
2022-09-11T05:43:44.315Z,100779.94
2022-09-11T05:46:17.278Z,100785.78
2022-09-11T05:48:46.212Z,100797.72
2022-09-11T05:51:15.847Z,100794.38
2022-09-11T05:53:42.891Z,100797.09
2022-09-11T05:56:17.658Z,100804.63
2022-09-11T05:58:46.592Z,100800.41
2022-09-11T06:01:17.185Z,100802.84
2022-09-11T06:03:48.438Z,100801.44
2022-09-11T06:06:18.036Z,100806.31
2022-09-11T06:08:45.658Z,100809.41
2022-09-11T06:11:14.214Z,100808.78
2022-09-11T06:13:43.211Z,100805.16
2022-09-11T06:16:18.417Z,100805.03
2022-09-11T06:18:50.443Z,100810.47
2022-09-11T06:21:21.940Z,100813.56
2022-09-11T06:23:57.774Z,100818.16
2022-09-11T06:26:26.091Z,100814.97
2022-09-11T06:28:54.523Z,100814.22
2022-09-11T06:31:25.972Z,100830.91
2022-09-11T06:33:54.335Z,100834.81
2022-09-11T06:36:24.185Z,100832.19
2022-09-11T06:38:55.854Z,100835.88
2022-09-11T06:41:25.546Z,100841.31
2022-09-11T06:43:56.462Z,100838.97
2022-09-11T06:46:25.268Z,100843.44
2022-09-11T06:48:55.709Z,100837.28
2022-09-11T06:51:25.638Z,100834.97
2022-09-11T06:53:56.121Z,100841.44
2022-09-11T06:56:22.733Z,100847.44
2022-09-11T06:58:51.083Z,100847.91
2022-09-11T07:01:20.382Z,100848.84
2022-09-11T07:03:54.520Z,100840.91
2022-09-11T07:06:27.186Z,100844.13
2022-09-11T07:09:00.807Z,100846.66
2022-09-11T07:11:35.107Z,100850.53
2022-09-11T07:14:05.762Z,100845.97
2022-09-11T07:16:36.527Z,100842.94
2022-09-11T07:19:09.184Z,100853.50
2022-09-11T07:21:37.152Z,100852.19
2022-09-11T07:24:05.065Z,100854.28
2022-09-11T07:26:38.788Z,100849.91
2022-09-11T07:29:12.850Z,100857.50
2022-09-11T07:31:39.474Z,100854.97
2022-09-11T07:34:06.749Z,100854.28
2022-09-11T07:36:35.078Z,100854.00
2022-09-11T07:39:06.142Z,100854.72
2022-09-11T07:41:41.428Z,100863.31
2022-09-11T07:44:15.229Z,100861.28
2022-09-11T07:46:41.826Z,100869.13
2022-09-11T07:49:11.241Z,100863.53
2022-09-11T07:51:40.710Z,100866.72
2022-09-11T07:54:09.757Z,100863.25
2022-09-11T07:56:38.081Z,100869.09
2022-09-11T07:59:08.582Z,100872.44
2022-09-11T08:01:37.785Z,100866.56
2022-09-11T08:04:08.017Z,100873.69
2022-09-11T08:06:37.450Z,100873.19
2022-09-11T08:09:12.325Z,100876.91
2022-09-11T08:11:45.791Z,100877.53
2022-09-11T08:14:13.723Z,100884.44
2022-09-11T08:16:41.842Z,100883.50
2022-09-11T08:19:16.550Z,100892.84
2022-09-11T08:21:43.578Z,100893.63
2022-09-11T08:24:15.090Z,100895.84
2022-09-11T08:26:48.137Z,100902.47
2022-09-11T08:29:18.171Z,100908.63
2022-09-11T08:31:45.884Z,100903.25
2022-09-11T08:34:14.118Z,100906.59
2022-09-11T08:36:41.487Z,100905.72
2022-09-11T08:39:09.710Z,100914.81
2022-09-11T08:41:53.661Z,100923.59
2022-09-11T08:44:27.450Z,100920.59
2022-09-11T08:47:07.622Z,100921.66
2022-09-11T08:49:39.741Z,100933.06
2022-09-11T08:52:08.691Z,100926.31
2022-09-11T08:54:38.128Z,100919.41
2022-09-11T08:57:29.477Z,100926.00
2022-09-11T09:00:18.687Z,100930.28
2022-09-11T09:03:12.431Z,100930.16
2022-09-11T09:05:53.521Z,100933.81
2022-09-11T09:08:51.023Z,100936.84
2022-09-11T09:11:30.361Z,100933.56
2022-09-11T09:14:38.038Z,100933.94
2022-09-11T09:17:28.836Z,100939.09
2022-09-11T09:20:11.066Z,100941.22
2022-09-11T09:22:55.013Z,100950.53
2022-09-11T09:25:23.861Z,100942.53
2022-09-11T09:28:14.684Z,100947.16
2022-09-11T09:31:07.316Z,100950.03
2022-09-11T09:33:42.137Z,100954.13
2022-09-11T09:36:27.055Z,100962.22
2022-09-11T09:38:54.603Z,100953.81
2022-09-11T09:41:56.781Z,100960.09
2022-09-11T09:44:54.949Z,100955.84
2022-09-11T09:47:22.325Z,100955.03
2022-09-11T09:49:51.543Z,100952.44
2022-09-11T09:52:25.399Z,100953.41
2022-09-11T09:54:56.760Z,100964.78
2022-09-11T09:57:27.187Z,100958.50
2022-09-11T10:00:08.774Z,100959.53
2022-09-11T10:02:43.189Z,100968.22
2022-09-11T10:05:13.437Z,100966.22
2022-09-11T10:07:47.389Z,100965.31
2022-09-11T10:10:29.889Z,100974.03
2022-09-11T10:13:17.994Z,100975.75
2022-09-11T10:15:49.449Z,100968.91
2022-09-11T10:18:40.170Z,100975.75
2022-09-11T10:21:12.345Z,100975.84
2022-09-11T10:23:50.468Z,100976.28
2022-09-11T10:26:23.406Z,100972.00
2022-09-11T10:28:50.625Z,100978.31
2022-09-11T10:31:18.582Z,100979.34
2022-09-11T10:33:56.420Z,100981.84
2022-09-11T10:36:27.104Z,100974.44
2022-09-11T10:38:55.268Z,100978.00
2022-09-11T10:41:26.043Z,100973.13
2022-09-11T10:44:11.316Z,100973.41
2022-09-11T10:46:42.358Z,100979.13
2022-09-11T10:49:11.746Z,100980.28
2022-09-11T10:51:44.330Z,100981.97
2022-09-11T10:54:20.118Z,100984.03
2022-09-11T10:57:00.206Z,100982.31
2022-09-11T10:59:36.491Z,100992.44
2022-09-11T11:02:03.920Z,100985.25
2022-09-11T11:04:32.232Z,100980.06
2022-09-11T11:07:13.384Z,100986.28
2022-09-11T11:09:50.721Z,100974.84
2022-09-11T11:12:31.882Z,100981.94
2022-09-11T11:15:20.060Z,100986.56
2022-09-11T11:18:15.982Z,100985.03
2022-09-11T11:21:07.567Z,100993.06
2022-09-11T11:23:49.554Z,100985.13
2022-09-11T11:26:36.684Z,100985.72
2022-09-11T11:29:35.492Z,100974.50
2022-09-11T11:32:30.274Z,100988.34
2022-09-11T11:35:23.666Z,100987.41
2022-09-11T11:37:55.821Z,100986.66
2022-09-11T11:40:36.866Z,100985.94
2022-09-11T11:43:05.349Z,100983.78
2022-09-11T11:46:02.344Z,100986.41
2022-09-11T11:48:58.713Z,100978.13
2022-09-11T11:51:36.095Z,100989.38
2022-09-11T11:54:27.561Z,100976.47
2022-09-11T11:56:59.879Z,100989.09
2022-09-11T11:59:48.812Z,100980.91
2022-09-11T12:02:24.428Z,100987.78
2022-09-11T12:05:17.074Z,100986.34
2022-09-11T12:07:47.278Z,100979.25
2022-09-11T12:10:30.030Z,100986.94
2022-09-11T12:13:01.375Z,100983.28
2022-09-11T12:15:32.259Z,100978.22
2022-09-11T12:18:12.079Z,100988.72
2022-09-11T12:20:39.090Z,100986.66
2022-09-11T12:23:07.672Z,100985.38
2022-09-11T12:25:35.431Z,100985.47
2022-09-11T12:28:25.571Z,100986.75
2022-09-11T12:31:05.119Z,100990.94
2022-09-11T12:33:41.050Z,100990.75
2022-09-11T12:36:17.448Z,100987.84
2022-09-11T12:38:50.102Z,100986.44
2022-09-11T12:41:25.458Z,100996.31
2022-09-11T12:43:54.960Z,100992.16
2022-09-11T12:46:21.848Z,100991.09
2022-09-11T12:49:17.837Z,100983.59
2022-09-11T12:51:43.487Z,100980.97
2022-09-11T12:54:18.928Z,100983.91
2022-09-11T12:57:05.537Z,100971.63
2022-09-11T12:59:38.490Z,100973.31
2022-09-11T13:02:38.805Z,100973.34
2022-09-11T13:05:24.766Z,100958.56
2022-09-11T13:07:56.637Z,100965.63
2022-09-11T13:10:36.407Z,100962.63
2022-09-11T13:13:36.932Z,100963.41
2022-09-11T13:16:30.989Z,100954.78
2022-09-11T13:19:13.354Z,100964.66
2022-09-11T13:21:49.320Z,100961.66
2022-09-11T13:24:32.108Z,100954.38
2022-09-11T13:27:18.830Z,100961.03
2022-09-11T13:29:48.454Z,100948.56
2022-09-11T13:32:18.037Z,100958.66
2022-09-11T13:34:48.928Z,100955.59
2022-09-11T13:37:43.278Z,100948.59
2022-09-11T13:40:20.741Z,100953.38
2022-09-11T13:42:48.847Z,100945.25
2022-09-11T13:45:18.936Z,100937.59
2022-09-11T13:47:46.134Z,100939.91
2022-09-11T13:50:15.798Z,100937.03
2022-09-11T13:52:44.575Z,100946.56
2022-09-11T13:55:19.031Z,100938.38
2022-09-11T13:57:55.165Z,100941.25
2022-09-11T14:00:44.766Z,100934.59
2022-09-11T14:03:24.386Z,100935.47
2022-09-11T14:05:54.261Z,100929.50
2022-09-11T14:08:27.289Z,100927.25
2022-09-11T14:10:57.834Z,100929.59
2022-09-11T14:13:36.156Z,100920.75
2022-09-11T14:16:05.917Z,100923.50
2022-09-11T14:18:40.995Z,100919.69
2022-09-11T14:21:17.855Z,100921.41
2022-09-11T14:23:49.733Z,100916.84
2022-09-11T14:26:19.419Z,100917.81
2022-09-11T14:28:55.775Z,100925.69
2022-09-11T14:31:41.478Z,100918.63
2022-09-11T14:34:42.005Z,100921.38
2022-09-11T14:37:14.503Z,100916.47
2022-09-11T14:39:47.772Z,100915.97
2022-09-11T14:42:17.580Z,100915.75
2022-09-11T14:44:44.432Z,100911.59
2022-09-11T14:47:17.466Z,100916.59
2022-09-11T14:49:48.043Z,100916.00
2022-09-11T14:52:20.495Z,100905.50
2022-09-11T14:54:47.852Z,100914.63
2022-09-11T14:57:20.630Z,100909.09
2022-09-11T14:59:47.781Z,100911.56
2022-09-11T15:02:17.689Z,100909.34
2022-09-11T15:04:46.146Z,100897.19
2022-09-11T15:07:15.135Z,100904.53
2022-09-11T15:09:42.597Z,100900.25
2022-09-11T15:12:11.201Z,100905.72
2022-09-11T15:14:55.862Z,100906.22
2022-09-11T15:17:25.130Z,100896.66
2022-09-11T15:19:52.907Z,100905.22
2022-09-11T15:22:19.578Z,100892.66
2022-09-11T15:24:46.988Z,100899.06
2022-09-11T15:27:13.803Z,100893.72
2022-09-11T15:29:42.702Z,100901.72
2022-09-11T15:32:10.294Z,100902.69
2022-09-11T15:34:38.529Z,100894.84
2022-09-11T15:37:05.406Z,100890.06
2022-09-11T15:39:31.993Z,100893.97
2022-09-11T15:41:59.134Z,100881.94
2022-09-11T15:44:28.549Z,100883.25
2022-09-11T15:46:57.536Z,100889.09
2022-09-11T15:49:28.669Z,100884.28
2022-09-11T15:51:55.739Z,100886.38
2022-09-11T15:54:25.107Z,100883.63
2022-09-11T15:56:53.375Z,100883.59
2022-09-11T15:59:20.101Z,100873.66
2022-09-11T16:01:46.668Z,100869.22
2022-09-11T16:04:20.101Z,100871.13
2022-09-11T16:06:48.350Z,100863.50
2022-09-11T16:09:18.455Z,100874.00
2022-09-11T16:11:47.717Z,100881.31
2022-09-11T16:14:17.708Z,100875.13
2022-09-11T16:16:47.049Z,100875.00
2022-09-11T16:19:15.258Z,100879.28
2022-09-11T16:21:41.938Z,100883.41
2022-09-11T16:24:09.879Z,100878.75
2022-09-11T16:26:38.178Z,100875.19
2022-09-11T16:29:08.800Z,100879.03
2022-09-11T16:31:35.541Z,100865.75
2022-09-11T16:34:04.136Z,100875.06
2022-09-11T16:36:38.181Z,100867.97
2022-09-11T16:39:11.754Z,100865.44
2022-09-11T16:41:38.602Z,100869.66
2022-09-11T16:44:07.224Z,100869.44
2022-09-11T16:46:33.826Z,100863.94
2022-09-11T16:49:02.171Z,100862.19
2022-09-11T16:51:29.654Z,100868.09
2022-09-11T16:53:56.872Z,100859.50
2022-09-11T16:56:25.719Z,100857.56
2022-09-11T16:58:52.537Z,100853.28
2022-09-11T17:01:23.350Z,100850.84
2022-09-11T17:03:51.716Z,100853.56
2022-09-11T17:06:20.685Z,100862.47
2022-09-11T17:08:50.615Z,100864.47
2022-09-11T17:11:19.058Z,100855.97
2022-09-11T17:13:46.556Z,100859.63
2022-09-11T17:16:18.862Z,100860.88
2022-09-11T17:18:50.432Z,100863.28
2022-09-11T17:21:17.313Z,100864.94
2022-09-11T17:23:44.138Z,100868.44
2022-09-11T17:26:13.027Z,100866.13
2022-09-11T17:28:40.991Z,100863.50
2022-09-11T17:31:10.773Z,100864.28
2022-09-11T17:33:40.114Z,100855.56
2022-09-11T17:36:08.419Z,100853.19
2022-09-11T17:38:35.374Z,100862.63
2022-09-11T17:41:04.798Z,100863.22
2022-09-11T17:43:33.188Z,100861.09
2022-09-11T17:46:01.299Z,100858.38
2022-09-11T17:48:28.005Z,100858.75
2022-09-11T17:51:06.095Z,100859.19
2022-09-11T17:53:38.485Z,100861.38
2022-09-11T17:56:09.637Z,100862.22
2022-09-11T17:58:37.528Z,100859.97
2022-09-11T18:01:06.060Z,100859.66
2022-09-11T18:03:34.260Z,100863.94
2022-09-11T18:06:02.788Z,100866.94
2022-09-11T18:08:31.162Z,100868.09
2022-09-11T18:11:00.585Z,100865.00
2022-09-11T18:13:28.946Z,100868.22
2022-09-11T18:15:56.204Z,100873.69
2022-09-11T18:18:23.681Z,100869.22
2022-09-11T18:20:53.913Z,100867.03
2022-09-11T18:23:23.174Z,100870.22
2022-09-11T18:25:51.403Z,100876.53
2022-09-11T18:28:20.047Z,100862.91
2022-09-11T18:30:47.349Z,100870.66
2022-09-11T18:33:16.636Z,100870.78
2022-09-11T18:35:44.136Z,100867.72
2022-09-11T18:38:10.995Z,100867.59
2022-09-11T18:40:37.612Z,100874.09
2022-09-11T18:43:06.209Z,100877.13
2022-09-11T18:45:35.463Z,100873.09
2022-09-11T18:48:03.854Z,100878.53
2022-09-11T18:50:30.442Z,100876.50
2022-09-11T18:52:57.035Z,100879.44
2022-09-11T18:55:23.653Z,100877.56
2022-09-11T18:57:50.822Z,100876.13
2022-09-11T19:00:18.113Z,100882.00
2022-09-11T19:02:46.682Z,100873.44
2022-09-11T19:05:15.499Z,100883.03
2022-09-11T19:07:43.807Z,100883.94
2022-09-11T19:10:11.597Z,100885.94
2022-09-11T19:12:39.389Z,100885.78
2022-09-11T19:15:07.608Z,100883.94
2022-09-11T19:17:35.906Z,100881.25
2022-09-11T19:20:09.598Z,100881.50
2022-09-11T19:22:36.224Z,100885.91
2022-09-11T19:25:03.463Z,100884.00
2022-09-11T19:27:31.649Z,100891.06
2022-09-11T19:30:00.254Z,100893.34
2022-09-11T19:32:28.061Z,100899.31
2022-09-11T19:34:55.061Z,100898.91
2022-09-11T19:37:21.566Z,100894.81
2022-09-11T19:39:50.717Z,100896.06
2022-09-11T19:42:17.806Z,100902.34
2022-09-11T19:44:44.357Z,100903.63
2022-09-11T19:47:11.313Z,100905.09
2022-09-11T19:49:37.805Z,100909.03
2022-09-11T19:52:04.371Z,100914.91
2022-09-11T19:54:30.910Z,100908.44
2022-09-11T19:56:57.632Z,100913.47
2022-09-11T19:59:24.201Z,100913.50
2022-09-11T20:01:50.774Z,100918.72
2022-09-11T20:04:19.052Z,100914.09
2022-09-11T20:09:30.579Z,100920.59
2022-09-11T20:11:58.012Z,100923.72
2022-09-11T20:14:24.509Z,100931.47
2022-09-11T20:16:51.277Z,100921.22
2022-09-11T20:19:17.856Z,100918.50
2022-09-11T20:21:44.389Z,100917.88
2022-09-11T20:24:10.880Z,100913.88
2022-09-11T20:26:37.526Z,100904.66
2022-09-11T20:29:07.176Z,100915.78
2022-09-11T20:31:40.640Z,100918.06
2022-09-11T20:34:12.920Z,100914.31
2022-09-11T20:36:39.434Z,100913.06
2022-09-11T20:39:06.079Z,100919.31
2022-09-11T20:41:33.360Z,100908.88
2022-09-11T20:44:03.532Z,100915.13
2022-09-11T20:46:30.100Z,100912.66
2022-09-11T20:48:56.709Z,100903.56
2022-09-11T20:51:23.704Z,100901.66
2022-09-11T20:53:50.559Z,100901.28
2022-09-11T20:56:20.633Z,100899.13
2022-09-11T20:58:47.426Z,100902.25
2022-09-11T21:01:16.921Z,100899.47
2022-09-11T21:03:45.885Z,100900.34
2022-09-11T21:06:12.511Z,100908.66
2022-09-11T21:08:40.265Z,100897.69
2022-09-11T21:11:07.427Z,100902.88
2022-09-11T21:13:38.357Z,100902.19
2022-09-11T21:16:13.198Z,100901.09
2022-09-11T21:18:44.138Z,100901.91
2022-09-11T21:21:10.657Z,100901.03
2022-09-11T21:23:37.211Z,100898.34
2022-09-11T21:26:07.621Z,100904.00
2022-09-11T21:28:34.566Z,100906.25
2022-09-11T21:31:01.130Z,100904.50
2022-09-11T21:33:27.978Z,100902.50
2022-09-11T21:35:55.287Z,100892.59
2022-09-11T21:38:30.225Z,100891.75
2022-09-11T21:40:58.673Z,100891.38
2022-09-11T21:43:26.108Z,100896.63
2022-09-11T21:45:52.914Z,100893.56
2022-09-11T21:48:19.842Z,100892.97
2022-09-11T21:50:46.580Z,100890.63
2022-09-11T21:53:13.196Z,100891.03
2022-09-11T21:55:41.258Z,100884.63
2022-09-11T21:58:08.987Z,100885.97
2022-09-11T22:00:42.071Z,100888.69
2022-09-11T22:03:11.175Z,100879.84
2022-09-11T22:05:45.002Z,100878.63
2022-09-11T22:08:13.371Z,100880.63
2022-09-11T22:10:47.450Z,100868.88
2022-09-11T22:13:14.938Z,100876.41
2022-09-11T22:15:42.589Z,100874.50
2022-09-11T22:18:09.532Z,100879.72
2022-09-11T22:20:37.101Z,100884.81
2022-09-11T22:23:03.809Z,100882.69
2022-09-11T22:25:30.364Z,100880.78
2022-09-11T22:27:57.486Z,100876.56
2022-09-11T22:30:24.005Z,100878.91
2022-09-11T22:32:50.750Z,100876.81
2022-09-11T22:35:17.756Z,100878.06
2022-09-11T22:37:44.250Z,100887.28
2022-09-11T22:40:11.367Z,100880.59
2022-09-11T22:42:38.694Z,100881.63
2022-09-11T22:45:08.947Z,100885.31
2022-09-11T22:47:35.605Z,100879.63
2022-09-11T22:50:02.098Z,100881.19
2022-09-11T22:52:29.131Z,100883.94
2022-09-11T22:54:55.822Z,100876.91
2022-09-11T22:57:22.700Z,100881.19
2022-09-11T22:59:49.214Z,100881.84
2022-09-11T23:02:15.909Z,100878.47
2022-09-11T23:05:02.444Z,100877.66
2022-09-11T23:07:29.166Z,100881.72
2022-09-11T23:09:55.816Z,100878.13
2022-09-11T23:12:22.562Z,100878.78
2022-09-11T23:14:49.353Z,100876.22
2022-09-11T23:17:16.338Z,100878.91
2022-09-11T23:19:43.273Z,100875.09
2022-09-11T23:22:09.782Z,100872.28
2022-09-11T23:24:36.279Z,100874.78
2022-09-11T23:27:02.795Z,100867.81
2022-09-11T23:29:29.405Z,100868.66
2022-09-11T23:31:56.568Z,100870.34
2022-09-11T23:34:23.102Z,100869.56
2022-09-11T23:36:49.632Z,100877.28
2022-09-11T23:39:16.534Z,100876.53
2022-09-11T23:41:43.058Z,100878.97
2022-09-11T23:44:10.477Z,100884.66
2022-09-11T23:46:38.036Z,100882.31
2022-09-11T23:49:06.219Z,100881.19
2022-09-11T23:51:32.782Z,100881.59
2022-09-11T23:53:59.291Z,100881.03
2022-09-11T23:56:25.798Z,100877.38
2022-09-11T23:58:52.276Z,100863.63
